sensor_id;sensor_type;location;lat;lon;timestamp;P1;durP1;ratioP1;P2;durP2;ratioP2
20713;SDS011;10518;50.742;4.226;2022-07-23T00:02:05;1.77;;;1.35;;
20713;SDS011;10518;50.742;4.226;2022-07-23T00:04:31;2.40;;;1.55;;
20713;SDS011;10518;50.742;4.226;2022-07-23T00:06:57;2.22;;;1.48;;
20713;SDS011;10518;50.742;4.226;2022-07-23T00:09:23;5.63;;;1.98;;
20713;SDS011;10518;50.742;4.226;2022-07-23T00:11:49;2.42;;;1.42;;
20713;SDS011;10518;50.742;4.226;2022-07-23T00:14:14;3.35;;;1.42;;
20713;SDS011;10518;50.742;4.226;2022-07-23T00:16:40;1.52;;;1.17;;
20713;SDS011;10518;50.742;4.226;2022-07-23T00:19:05;2.35;;;1.67;;
20713;SDS011;10518;50.742;4.226;2022-07-23T00:21:31;2.58;;;1.70;;
20713;SDS011;10518;50.742;4.226;2022-07-23T00:23:57;2.03;;;1.40;;
20713;SDS011;10518;50.742;4.226;2022-07-23T00:26:22;3.33;;;1.70;;
20713;SDS011;10518;50.742;4.226;2022-07-23T00:28:48;4.00;;;1.92;;
20713;SDS011;10518;50.742;4.226;2022-07-23T00:31:13;5.55;;;2.25;;
20713;SDS011;10518;50.742;4.226;2022-07-23T00:33:39;2.55;;;1.80;;
20713;SDS011;10518;50.742;4.226;2022-07-23T00:36:05;3.20;;;1.50;;
20713;SDS011;10518;50.742;4.226;2022-07-23T00:38:30;2.13;;;1.65;;
20713;SDS011;10518;50.742;4.226;2022-07-23T00:40:56;1.58;;;1.45;;
20713;SDS011;10518;50.742;4.226;2022-07-23T00:43:22;2.17;;;1.98;;
20713;SDS011;10518;50.742;4.226;2022-07-23T00:45:49;3.35;;;1.80;;
20713;SDS011;10518;50.742;4.226;2022-07-23T00:48:14;1.85;;;1.50;;
20713;SDS011;10518;50.742;4.226;2022-07-23T00:50:40;3.97;;;1.92;;
20713;SDS011;10518;50.742;4.226;2022-07-23T00:53:06;3.38;;;1.73;;
20713;SDS011;10518;50.742;4.226;2022-07-23T00:55:33;2.05;;;1.80;;
20713;SDS011;10518;50.742;4.226;2022-07-23T00:57:59;1.48;;;1.30;;
20713;SDS011;10518;50.742;4.226;2022-07-23T01:00:26;3.08;;;1.88;;
20713;SDS011;10518;50.742;4.226;2022-07-23T01:02:52;1.95;;;1.77;;
20713;SDS011;10518;50.742;4.226;2022-07-23T01:05:18;3.47;;;2.22;;
20713;SDS011;10518;50.742;4.226;2022-07-23T01:07:47;5.78;;;2.00;;
20713;SDS011;10518;50.742;4.226;2022-07-23T01:10:14;1.80;;;1.40;;
20713;SDS011;10518;50.742;4.226;2022-07-23T01:13:03;1.63;;;1.25;;
20713;SDS011;10518;50.742;4.226;2022-07-23T01:15:31;2.17;;;1.60;;
20713;SDS011;10518;50.742;4.226;2022-07-23T01:17:58;6.85;;;2.40;;
20713;SDS011;10518;50.742;4.226;2022-07-23T01:20:24;2.70;;;2.05;;
20713;SDS011;10518;50.742;4.226;2022-07-23T01:22:50;2.70;;;2.00;;
20713;SDS011;10518;50.742;4.226;2022-07-23T01:25:16;2.83;;;2.05;;
20713;SDS011;10518;50.742;4.226;2022-07-23T01:27:41;4.63;;;1.85;;
20713;SDS011;10518;50.742;4.226;2022-07-23T01:30:07;4.80;;;2.78;;
20713;SDS011;10518;50.742;4.226;2022-07-23T01:32:33;2.70;;;1.98;;
20713;SDS011;10518;50.742;4.226;2022-07-23T01:34:59;2.38;;;2.05;;
20713;SDS011;10518;50.742;4.226;2022-07-23T01:37:25;3.97;;;1.70;;
20713;SDS011;10518;50.742;4.226;2022-07-23T01:39:50;2.28;;;1.55;;
20713;SDS011;10518;50.742;4.226;2022-07-23T01:42:16;3.40;;;2.05;;
20713;SDS011;10518;50.742;4.226;2022-07-23T01:44:41;3.45;;;1.92;;
20713;SDS011;10518;50.742;4.226;2022-07-23T01:47:07;3.35;;;2.25;;
20713;SDS011;10518;50.742;4.226;2022-07-23T01:49:32;3.42;;;1.45;;
20713;SDS011;10518;50.742;4.226;2022-07-23T01:51:58;2.60;;;2.10;;
20713;SDS011;10518;50.742;4.226;2022-07-23T01:54:27;4.78;;;2.10;;
20713;SDS011;10518;50.742;4.226;2022-07-23T01:56:57;6.22;;;2.22;;
20713;SDS011;10518;50.742;4.226;2022-07-23T01:59:24;3.30;;;1.58;;
20713;SDS011;10518;50.742;4.226;2022-07-23T02:01:50;3.85;;;2.55;;
20713;SDS011;10518;50.742;4.226;2022-07-23T02:04:16;1.75;;;1.23;;
20713;SDS011;10518;50.742;4.226;2022-07-23T02:06:42;3.22;;;1.15;;
20713;SDS011;10518;50.742;4.226;2022-07-23T02:09:08;1.90;;;1.60;;
20713;SDS011;10518;50.742;4.226;2022-07-23T02:11:34;4.40;;;1.63;;
20713;SDS011;10518;50.742;4.226;2022-07-23T02:13:59;6.40;;;1.80;;
20713;SDS011;10518;50.742;4.226;2022-07-23T02:16:25;1.92;;;1.48;;
20713;SDS011;10518;50.742;4.226;2022-07-23T02:18:51;3.47;;;2.90;;
20713;SDS011;10518;50.742;4.226;2022-07-23T02:21:16;3.75;;;2.70;;
20713;SDS011;10518;50.742;4.226;2022-07-23T02:23:42;5.78;;;2.03;;
20713;SDS011;10518;50.742;4.226;2022-07-23T02:26:07;1.95;;;1.80;;
20713;SDS011;10518;50.742;4.226;2022-07-23T02:28:33;3.42;;;2.35;;
20713;SDS011;10518;50.742;4.226;2022-07-23T02:30:58;3.85;;;1.75;;
20713;SDS011;10518;50.742;4.226;2022-07-23T02:33:24;2.38;;;1.98;;
20713;SDS011;10518;50.742;4.226;2022-07-23T02:35:50;5.18;;;2.10;;
20713;SDS011;10518;50.742;4.226;2022-07-23T02:38:16;1.98;;;1.30;;
20713;SDS011;10518;50.742;4.226;2022-07-23T02:40:41;3.38;;;1.50;;
20713;SDS011;10518;50.742;4.226;2022-07-23T02:43:07;2.13;;;1.33;;
20713;SDS011;10518;50.742;4.226;2022-07-23T02:45:32;4.55;;;2.03;;
20713;SDS011;10518;50.742;4.226;2022-07-23T02:47:58;6.07;;;2.25;;
20713;SDS011;10518;50.742;4.226;2022-07-23T02:50:23;3.65;;;1.98;;
20713;SDS011;10518;50.742;4.226;2022-07-23T02:52:49;4.07;;;1.77;;
20713;SDS011;10518;50.742;4.226;2022-07-23T02:55:15;3.50;;;1.88;;
20713;SDS011;10518;50.742;4.226;2022-07-23T02:57:40;5.60;;;1.85;;
20713;SDS011;10518;50.742;4.226;2022-07-23T03:00:06;7.45;;;2.15;;
20713;SDS011;10518;50.742;4.226;2022-07-23T03:02:33;1.92;;;1.63;;
20713;SDS011;10518;50.742;4.226;2022-07-23T03:04:58;4.30;;;1.98;;
20713;SDS011;10518;50.742;4.226;2022-07-23T03:07:24;2.15;;;1.42;;
20713;SDS011;10518;50.742;4.226;2022-07-23T03:09:50;2.53;;;1.73;;
20713;SDS011;10518;50.742;4.226;2022-07-23T03:12:15;4.60;;;1.80;;
20713;SDS011;10518;50.742;4.226;2022-07-23T03:14:41;3.65;;;2.00;;
20713;SDS011;10518;50.742;4.226;2022-07-23T03:17:07;1.70;;;1.10;;
20713;SDS011;10518;50.742;4.226;2022-07-23T03:19:33;4.22;;;1.92;;
20713;SDS011;10518;50.742;4.226;2022-07-23T03:21:58;2.35;;;2.10;;
20713;SDS011;10518;50.742;4.226;2022-07-23T03:24:24;2.55;;;1.67;;
20713;SDS011;10518;50.742;4.226;2022-07-23T03:27:10;2.10;;;1.60;;
20713;SDS011;10518;50.742;4.226;2022-07-23T03:29:35;4.78;;;1.80;;
20713;SDS011;10518;50.742;4.226;2022-07-23T03:32:02;2.60;;;1.73;;
20713;SDS011;10518;50.742;4.226;2022-07-23T03:34:28;4.78;;;1.67;;
20713;SDS011;10518;50.742;4.226;2022-07-23T03:36:54;2.38;;;1.70;;
20713;SDS011;10518;50.742;4.226;2022-07-23T03:39:19;2.42;;;2.03;;
20713;SDS011;10518;50.742;4.226;2022-07-23T03:41:45;2.65;;;1.80;;
20713;SDS011;10518;50.742;4.226;2022-07-23T03:44:10;2.83;;;1.63;;
20713;SDS011;10518;50.742;4.226;2022-07-23T03:46:36;3.30;;;2.10;;
20713;SDS011;10518;50.742;4.226;2022-07-23T03:49:02;2.05;;;1.23;;
20713;SDS011;10518;50.742;4.226;2022-07-23T03:51:27;2.80;;;1.75;;
20713;SDS011;10518;50.742;4.226;2022-07-23T03:53:53;4.53;;;2.20;;
20713;SDS011;10518;50.742;4.226;2022-07-23T03:56:19;2.42;;;1.70;;
20713;SDS011;10518;50.742;4.226;2022-07-23T03:58:45;3.92;;;2.08;;
20713;SDS011;10518;50.742;4.226;2022-07-23T04:01:10;2.97;;;1.55;;
20713;SDS011;10518;50.742;4.226;2022-07-23T04:03:37;2.28;;;1.83;;
20713;SDS011;10518;50.742;4.226;2022-07-23T04:06:02;2.85;;;1.92;;
20713;SDS011;10518;50.742;4.226;2022-07-23T04:08:28;4.80;;;2.00;;
20713;SDS011;10518;50.742;4.226;2022-07-23T04:10:54;3.53;;;2.20;;
20713;SDS011;10518;50.742;4.226;2022-07-23T04:13:20;3.42;;;2.35;;
20713;SDS011;10518;50.742;4.226;2022-07-23T04:15:46;4.75;;;2.58;;
20713;SDS011;10518;50.742;4.226;2022-07-23T04:18:12;3.08;;;2.08;;
20713;SDS011;10518;50.742;4.226;2022-07-23T04:20:37;2.53;;;2.10;;
20713;SDS011;10518;50.742;4.226;2022-07-23T04:23:03;6.18;;;2.15;;
20713;SDS011;10518;50.742;4.226;2022-07-23T04:25:29;3.88;;;1.80;;
20713;SDS011;10518;50.742;4.226;2022-07-23T04:27:54;3.05;;;2.20;;
20713;SDS011;10518;50.742;4.226;2022-07-23T04:30:20;6.63;;;2.05;;
20713;SDS011;10518;50.742;4.226;2022-07-23T04:32:46;4.68;;;1.90;;
20713;SDS011;10518;50.742;4.226;2022-07-23T04:35:11;3.45;;;2.47;;
20713;SDS011;10518;50.742;4.226;2022-07-23T04:37:37;1.85;;;1.58;;
20713;SDS011;10518;50.742;4.226;2022-07-23T04:40:03;2.10;;;1.90;;
20713;SDS011;10518;50.742;4.226;2022-07-23T04:42:29;2.20;;;1.63;;
20713;SDS011;10518;50.742;4.226;2022-07-23T04:44:54;5.28;;;2.03;;
20713;SDS011;10518;50.742;4.226;2022-07-23T04:47:20;4.35;;;1.75;;
20713;SDS011;10518;50.742;4.226;2022-07-23T04:49:46;3.60;;;1.80;;
20713;SDS011;10518;50.742;4.226;2022-07-23T04:52:11;1.85;;;1.30;;
20713;SDS011;10518;50.742;4.226;2022-07-23T04:54:37;3.08;;;1.33;;
20713;SDS011;10518;50.742;4.226;2022-07-23T04:57:02;2.90;;;2.33;;
20713;SDS011;10518;50.742;4.226;2022-07-23T04:59:28;2.63;;;1.95;;
20713;SDS011;10518;50.742;4.226;2022-07-23T05:01:54;4.60;;;2.10;;
20713;SDS011;10518;50.742;4.226;2022-07-23T05:04:19;2.58;;;1.17;;
20713;SDS011;10518;50.742;4.226;2022-07-23T05:06:45;3.85;;;1.95;;
20713;SDS011;10518;50.742;4.226;2022-07-23T05:09:11;2.88;;;1.77;;
20713;SDS011;10518;50.742;4.226;2022-07-23T05:11:37;5.85;;;2.05;;
20713;SDS011;10518;50.742;4.226;2022-07-23T05:14:02;3.72;;;2.58;;
20713;SDS011;10518;50.742;4.226;2022-07-23T05:16:28;4.32;;;2.40;;
20713;SDS011;10518;50.742;4.226;2022-07-23T05:18:53;2.33;;;1.88;;
20713;SDS011;10518;50.742;4.226;2022-07-23T05:21:19;2.10;;;1.30;;
20713;SDS011;10518;50.742;4.226;2022-07-23T05:23:45;1.83;;;1.55;;
20713;SDS011;10518;50.742;4.226;2022-07-23T05:26:10;2.78;;;1.65;;
20713;SDS011;10518;50.742;4.226;2022-07-23T05:28:36;2.20;;;1.45;;
20713;SDS011;10518;50.742;4.226;2022-07-23T05:31:02;2.15;;;1.15;;
20713;SDS011;10518;50.742;4.226;2022-07-23T05:33:28;7.22;;;2.42;;
20713;SDS011;10518;50.742;4.226;2022-07-23T05:35:59;6.20;;;2.22;;
20713;SDS011;10518;50.742;4.226;2022-07-23T05:38:26;3.35;;;1.85;;
20713;SDS011;10518;50.742;4.226;2022-07-23T05:40:52;2.38;;;1.77;;
20713;SDS011;10518;50.742;4.226;2022-07-23T05:43:17;3.10;;;1.40;;
20713;SDS011;10518;50.742;4.226;2022-07-23T05:45:43;3.22;;;1.60;;
20713;SDS011;10518;50.742;4.226;2022-07-23T05:48:09;1.80;;;1.17;;
20713;SDS011;10518;50.742;4.226;2022-07-23T05:50:34;5.65;;;3.00;;
20713;SDS011;10518;50.742;4.226;2022-07-23T05:53:00;2.05;;;1.73;;
20713;SDS011;10518;50.742;4.226;2022-07-23T05:55:25;5.53;;;1.77;;
20713;SDS011;10518;50.742;4.226;2022-07-23T05:57:54;2.03;;;1.38;;
20713;SDS011;10518;50.742;4.226;2022-07-23T06:00:23;4.10;;;1.85;;
20713;SDS011;10518;50.742;4.226;2022-07-23T06:02:49;2.97;;;1.65;;
20713;SDS011;10518;50.742;4.226;2022-07-23T06:05:14;6.20;;;2.25;;
20713;SDS011;10518;50.742;4.226;2022-07-23T06:07:40;3.47;;;1.75;;
20713;SDS011;10518;50.742;4.226;2022-07-23T06:10:06;3.00;;;1.52;;
20713;SDS011;10518;50.742;4.226;2022-07-23T06:12:32;3.88;;;2.03;;
20713;SDS011;10518;50.742;4.226;2022-07-23T06:14:57;4.22;;;2.15;;
20713;SDS011;10518;50.742;4.226;2022-07-23T06:17:23;4.13;;;2.10;;
20713;SDS011;10518;50.742;4.226;2022-07-23T06:19:49;6.25;;;2.13;;
20713;SDS011;10518;50.742;4.226;2022-07-23T06:22:14;6.88;;;2.70;;
20713;SDS011;10518;50.742;4.226;2022-07-23T06:24:40;4.95;;;1.80;;
20713;SDS011;10518;50.742;4.226;2022-07-23T06:27:06;4.03;;;2.03;;
20713;SDS011;10518;50.742;4.226;2022-07-23T06:29:31;3.72;;;2.63;;
20713;SDS011;10518;50.742;4.226;2022-07-23T06:31:57;4.38;;;2.42;;
20713;SDS011;10518;50.742;4.226;2022-07-23T06:34:22;4.88;;;2.35;;
20713;SDS011;10518;50.742;4.226;2022-07-23T06:36:48;2.95;;;1.70;;
20713;SDS011;10518;50.742;4.226;2022-07-23T06:39:14;6.55;;;1.90;;
20713;SDS011;10518;50.742;4.226;2022-07-23T06:41:39;3.80;;;1.90;;
20713;SDS011;10518;50.742;4.226;2022-07-23T06:44:05;4.55;;;1.80;;
20713;SDS011;10518;50.742;4.226;2022-07-23T06:46:30;1.65;;;1.23;;
20713;SDS011;10518;50.742;4.226;2022-07-23T06:48:56;2.60;;;1.80;;
20713;SDS011;10518;50.742;4.226;2022-07-23T06:51:21;2.67;;;1.75;;
20713;SDS011;10518;50.742;4.226;2022-07-23T06:53:47;5.65;;;1.65;;
20713;SDS011;10518;50.742;4.226;2022-07-23T06:56:13;4.32;;;1.98;;
20713;SDS011;10518;50.742;4.226;2022-07-23T06:58:38;2.65;;;1.50;;
20713;SDS011;10518;50.742;4.226;2022-07-23T07:01:04;3.08;;;1.45;;
20713;SDS011;10518;50.742;4.226;2022-07-23T07:03:29;5.40;;;1.75;;
20713;SDS011;10518;50.742;4.226;2022-07-23T07:05:55;6.10;;;2.03;;
20713;SDS011;10518;50.742;4.226;2022-07-23T07:08:22;3.95;;;1.85;;
20713;SDS011;10518;50.742;4.226;2022-07-23T07:10:48;3.97;;;1.90;;
20713;SDS011;10518;50.742;4.226;2022-07-23T07:13:14;6.53;;;1.60;;
20713;SDS011;10518;50.742;4.226;2022-07-23T07:15:40;4.85;;;1.75;;
20713;SDS011;10518;50.742;4.226;2022-07-23T07:18:06;2.78;;;1.70;;
20713;SDS011;10518;50.742;4.226;2022-07-23T07:20:32;2.67;;;1.58;;
20713;SDS011;10518;50.742;4.226;2022-07-23T07:22:58;2.55;;;1.33;;
20713;SDS011;10518;50.742;4.226;2022-07-23T07:25:23;4.90;;;1.90;;
20713;SDS011;10518;50.742;4.226;2022-07-23T07:27:49;3.38;;;1.65;;
20713;SDS011;10518;50.742;4.226;2022-07-23T07:30:14;3.83;;;1.48;;
20713;SDS011;10518;50.742;4.226;2022-07-23T07:32:40;2.88;;;1.58;;
20713;SDS011;10518;50.742;4.226;2022-07-23T07:35:06;3.22;;;2.08;;
20713;SDS011;10518;50.742;4.226;2022-07-23T07:37:32;2.65;;;1.55;;
20713;SDS011;10518;50.742;4.226;2022-07-23T07:39:57;2.60;;;1.30;;
20713;SDS011;10518;50.742;4.226;2022-07-23T07:42:23;2.97;;;1.63;;
20713;SDS011;10518;50.742;4.226;2022-07-23T07:44:49;2.97;;;1.70;;
20713;SDS011;10518;50.742;4.226;2022-07-23T07:47:14;1.85;;;1.38;;
20713;SDS011;10518;50.742;4.226;2022-07-23T07:49:41;1.83;;;1.40;;
20713;SDS011;10518;50.742;4.226;2022-07-23T07:52:07;4.57;;;2.03;;
20713;SDS011;10518;50.742;4.226;2022-07-23T07:54:32;3.45;;;1.92;;
20713;SDS011;10518;50.742;4.226;2022-07-23T07:56:58;2.40;;;1.50;;
20713;SDS011;10518;50.742;4.226;2022-07-23T07:59:24;3.25;;;1.40;;
20713;SDS011;10518;50.742;4.226;2022-07-23T08:01:50;6.80;;;1.73;;
20713;SDS011;10518;50.742;4.226;2022-07-23T08:04:16;10.77;;;1.90;;
20713;SDS011;10518;50.742;4.226;2022-07-23T08:06:41;2.70;;;1.45;;
20713;SDS011;10518;50.742;4.226;2022-07-23T08:09:07;4.55;;;2.00;;
20713;SDS011;10518;50.742;4.226;2022-07-23T08:11:32;6.40;;;2.28;;
20713;SDS011;10518;50.742;4.226;2022-07-23T08:13:58;2.00;;;1.30;;
20713;SDS011;10518;50.742;4.226;2022-07-23T08:16:24;2.78;;;1.73;;
20713;SDS011;10518;50.742;4.226;2022-07-23T08:18:49;2.45;;;1.23;;
20713;SDS011;10518;50.742;4.226;2022-07-23T08:21:15;2.55;;;1.58;;
20713;SDS011;10518;50.742;4.226;2022-07-23T08:23:40;2.80;;;1.67;;
20713;SDS011;10518;50.742;4.226;2022-07-23T08:26:06;3.63;;;1.58;;
20713;SDS011;10518;50.742;4.226;2022-07-23T08:28:32;3.03;;;1.83;;
20713;SDS011;10518;50.742;4.226;2022-07-23T08:30:58;1.60;;;1.25;;
20713;SDS011;10518;50.742;4.226;2022-07-23T08:33:24;2.58;;;1.70;;
20713;SDS011;10518;50.742;4.226;2022-07-23T08:35:50;3.05;;;1.70;;
20713;SDS011;10518;50.742;4.226;2022-07-23T08:38:18;3.38;;;1.88;;
20713;SDS011;10518;50.742;4.226;2022-07-23T08:40:47;2.88;;;1.30;;
20713;SDS011;10518;50.742;4.226;2022-07-23T08:43:17;5.90;;;1.60;;
20713;SDS011;10518;50.742;4.226;2022-07-23T08:45:46;2.50;;;1.65;;
20713;SDS011;10518;50.742;4.226;2022-07-23T08:48:19;1.77;;;1.23;;
20713;SDS011;10518;50.742;4.226;2022-07-23T08:50:51;4.28;;;1.48;;
20713;SDS011;10518;50.742;4.226;2022-07-23T08:53:21;2.50;;;1.27;;
20713;SDS011;10518;50.742;4.226;2022-07-23T08:55:49;4.05;;;1.67;;
20713;SDS011;10518;50.742;4.226;2022-07-23T08:58:16;2.90;;;1.33;;
20713;SDS011;10518;50.742;4.226;2022-07-23T09:00:42;5.60;;;2.20;;
20713;SDS011;10518;50.742;4.226;2022-07-23T09:03:16;5.90;;;1.58;;
20713;SDS011;10518;50.742;4.226;2022-07-23T09:05:42;2.55;;;1.45;;
20713;SDS011;10518;50.742;4.226;2022-07-23T09:08:34;4.95;;;1.08;;
20713;SDS011;10518;50.742;4.226;2022-07-23T09:11:07;4.72;;;1.50;;
20713;SDS011;10518;50.742;4.226;2022-07-23T09:16:30;2.95;;;1.40;;
20713;SDS011;10518;50.742;4.226;2022-07-23T09:19:00;3.35;;;1.17;;
20713;SDS011;10518;50.742;4.226;2022-07-23T09:21:31;2.97;;;1.38;;
20713;SDS011;10518;50.742;4.226;2022-07-23T09:24:05;2.00;;;0.85;;
20713;SDS011;10518;50.742;4.226;2022-07-23T09:26:41;1.88;;;1.42;;
20713;SDS011;10518;50.742;4.226;2022-07-23T09:29:17;3.13;;;1.67;;
20713;SDS011;10518;50.742;4.226;2022-07-23T09:31:46;1.52;;;1.10;;
20713;SDS011;10518;50.742;4.226;2022-07-23T09:34:33;3.40;;;1.55;;
20713;SDS011;10518;50.742;4.226;2022-07-23T09:37:09;1.90;;;1.20;;
20713;SDS011;10518;50.742;4.226;2022-07-23T09:39:35;5.15;;;0.80;;
20713;SDS011;10518;50.742;4.226;2022-07-23T09:44:47;2.53;;;1.27;;
20713;SDS011;10518;50.742;4.226;2022-07-23T09:47:18;1.98;;;1.05;;
20713;SDS011;10518;50.742;4.226;2022-07-23T09:52:35;7.22;;;1.33;;
20713;SDS011;10518;50.742;4.226;2022-07-23T09:55:08;3.08;;;1.92;;
20713;SDS011;10518;50.742;4.226;2022-07-23T09:57:34;5.10;;;1.50;;
20713;SDS011;10518;50.742;4.226;2022-07-23T10:00:01;2.92;;;1.45;;
20713;SDS011;10518;50.742;4.226;2022-07-23T10:02:29;2.22;;;0.90;;
20713;SDS011;10518;50.742;4.226;2022-07-23T10:04:57;1.50;;;1.02;;
20713;SDS011;10518;50.742;4.226;2022-07-23T10:07:24;1.90;;;1.05;;
20713;SDS011;10518;50.742;4.226;2022-07-23T10:09:51;1.65;;;1.05;;
20713;SDS011;10518;50.742;4.226;2022-07-23T10:12:18;2.47;;;1.15;;
20713;SDS011;10518;50.742;4.226;2022-07-23T10:14:47;1.10;;;0.90;;
20713;SDS011;10518;50.742;4.226;2022-07-23T10:17:14;1.85;;;0.70;;
20713;SDS011;10518;50.742;4.226;2022-07-23T10:19:40;1.83;;;1.05;;
20713;SDS011;10518;50.742;4.226;2022-07-23T10:22:06;1.95;;;1.33;;
20713;SDS011;10518;50.742;4.226;2022-07-23T10:30:06;1.52;;;1.40;;
20713;SDS011;10518;50.742;4.226;2022-07-23T10:33:01;2.42;;;1.05;;
20713;SDS011;10518;50.742;4.226;2022-07-23T10:38:37;1.45;;;0.88;;
20713;SDS011;10518;50.742;4.226;2022-07-23T10:41:35;2.38;;;1.60;;
20713;SDS011;10518;50.742;4.226;2022-07-23T10:49:32;2.80;;;1.40;;
20713;SDS011;10518;50.742;4.226;2022-07-23T10:54:47;2.35;;;1.30;;
20713;SDS011;10518;50.742;4.226;2022-07-23T10:57:17;2.38;;;0.90;;
20713;SDS011;10518;50.742;4.226;2022-07-23T11:02:26;1.45;;;1.30;;
20713;SDS011;10518;50.742;4.226;2022-07-23T11:04:56;1.88;;;1.15;;
20713;SDS011;10518;50.742;4.226;2022-07-23T11:07:25;1.70;;;0.80;;
20713;SDS011;10518;50.742;4.226;2022-07-23T11:09:50;1.40;;;0.80;;
20713;SDS011;10518;50.742;4.226;2022-07-23T11:17:33;1.92;;;1.00;;
20713;SDS011;10518;50.742;4.226;2022-07-23T11:22:34;2.10;;;1.08;;
20713;SDS011;10518;50.742;4.226;2022-07-23T11:25:00;3.00;;;0.98;;
20713;SDS011;10518;50.742;4.226;2022-07-23T11:27:39;3.97;;;1.17;;
20713;SDS011;10518;50.742;4.226;2022-07-23T11:30:54;2.30;;;1.23;;
20713;SDS011;10518;50.742;4.226;2022-07-23T11:35:33;2.72;;;1.42;;
20713;SDS011;10518;50.742;4.226;2022-07-23T11:38:08;3.38;;;1.27;;
20713;SDS011;10518;50.742;4.226;2022-07-23T11:40:40;2.85;;;1.38;;
20713;SDS011;10518;50.742;4.226;2022-07-23T11:43:07;1.27;;;0.98;;
20713;SDS011;10518;50.742;4.226;2022-07-23T11:45:35;2.95;;;1.30;;
20713;SDS011;10518;50.742;4.226;2022-07-23T11:48:02;2.38;;;1.33;;
20713;SDS011;10518;50.742;4.226;2022-07-23T11:50:29;1.73;;;1.02;;
20713;SDS011;10518;50.742;4.226;2022-07-23T11:52:55;1.25;;;1.02;;
20713;SDS011;10518;50.742;4.226;2022-07-23T11:55:21;1.83;;;0.90;;
20713;SDS011;10518;50.742;4.226;2022-07-23T11:57:47;1.75;;;1.08;;
20713;SDS011;10518;50.742;4.226;2022-07-23T12:00:16;4.13;;;1.17;;
20713;SDS011;10518;50.742;4.226;2022-07-23T12:02:50;1.85;;;1.02;;
20713;SDS011;10518;50.742;4.226;2022-07-23T12:05:23;3.35;;;1.17;;
20713;SDS011;10518;50.742;4.226;2022-07-23T12:07:50;1.30;;;1.00;;
20713;SDS011;10518;50.742;4.226;2022-07-23T12:10:19;2.55;;;1.10;;
20713;SDS011;10518;50.742;4.226;2022-07-23T12:12:50;1.30;;;0.98;;
20713;SDS011;10518;50.742;4.226;2022-07-23T12:15:20;1.92;;;1.05;;
20713;SDS011;10518;50.742;4.226;2022-07-23T12:17:52;2.58;;;0.93;;
20713;SDS011;10518;50.742;4.226;2022-07-23T12:20:25;1.42;;;0.95;;
20713;SDS011;10518;50.742;4.226;2022-07-23T12:22:57;1.30;;;0.98;;
20713;SDS011;10518;50.742;4.226;2022-07-23T12:25:26;2.88;;;1.20;;
20713;SDS011;10518;50.742;4.226;2022-07-23T12:28:01;1.17;;;0.90;;
20713;SDS011;10518;50.742;4.226;2022-07-23T12:33:02;1.55;;;1.10;;
20713;SDS011;10518;50.742;4.226;2022-07-23T12:35:33;2.92;;;1.20;;
20713;SDS011;10518;50.742;4.226;2022-07-23T12:38:03;1.38;;;1.00;;
20713;SDS011;10518;50.742;4.226;2022-07-23T12:40:32;33.78;;;1.73;;
20713;SDS011;10518;50.742;4.226;2022-07-23T12:43:04;1.67;;;1.00;;
20713;SDS011;10518;50.742;4.226;2022-07-23T12:45:44;1.15;;;0.85;;
20713;SDS011;10518;50.742;4.226;2022-07-23T12:48:16;1.17;;;1.02;;
20713;SDS011;10518;50.742;4.226;2022-07-23T12:50:49;0.63;;;0.60;;
20713;SDS011;10518;50.742;4.226;2022-07-23T12:53:17;0.95;;;0.73;;
20713;SDS011;10518;50.742;4.226;2022-07-23T12:55:45;1.67;;;0.90;;
20713;SDS011;10518;50.742;4.226;2022-07-23T12:58:19;0.65;;;0.65;;
20713;SDS011;10518;50.742;4.226;2022-07-23T13:00:49;2.83;;;1.02;;
20713;SDS011;10518;50.742;4.226;2022-07-23T13:03:24;1.38;;;0.98;;
20713;SDS011;10518;50.742;4.226;2022-07-23T13:06:01;6.22;;;1.13;;
20713;SDS011;10518;50.742;4.226;2022-07-23T13:08:29;2.10;;;0.90;;
20713;SDS011;10518;50.742;4.226;2022-07-23T13:10:56;1.30;;;0.82;;
20713;SDS011;10518;50.742;4.226;2022-07-23T13:13:23;0.98;;;0.70;;
20713;SDS011;10518;50.742;4.226;2022-07-23T13:15:50;1.25;;;1.10;;
20713;SDS011;10518;50.742;4.226;2022-07-23T13:18:16;2.60;;;1.13;;
20713;SDS011;10518;50.742;4.226;2022-07-23T13:20:43;0.93;;;0.80;;
20713;SDS011;10518;50.742;4.226;2022-07-23T13:23:10;1.08;;;0.73;;
20713;SDS011;10518;50.742;4.226;2022-07-23T13:25:35;1.48;;;0.63;;
20713;SDS011;10518;50.742;4.226;2022-07-23T13:28:01;1.00;;;0.85;;
20713;SDS011;10518;50.742;4.226;2022-07-23T13:30:27;1.48;;;1.00;;
20713;SDS011;10518;50.742;4.226;2022-07-23T13:32:53;1.55;;;1.02;;
20713;SDS011;10518;50.742;4.226;2022-07-23T13:35:18;1.48;;;0.80;;
20713;SDS011;10518;50.742;4.226;2022-07-23T13:37:44;2.22;;;1.13;;
20713;SDS011;10518;50.742;4.226;2022-07-23T13:40:10;4.18;;;1.10;;
20713;SDS011;10518;50.742;4.226;2022-07-23T13:42:36;1.42;;;0.80;;
20713;SDS011;10518;50.742;4.226;2022-07-23T13:45:03;3.53;;;1.40;;
20713;SDS011;10518;50.742;4.226;2022-07-23T13:47:29;1.98;;;1.20;;
20713;SDS011;10518;50.742;4.226;2022-07-23T13:49:55;1.52;;;1.10;;
20713;SDS011;10518;50.742;4.226;2022-07-23T13:52:21;1.55;;;0.98;;
20713;SDS011;10518;50.742;4.226;2022-07-23T13:54:46;2.13;;;0.90;;
20713;SDS011;10518;50.742;4.226;2022-07-23T13:57:12;2.25;;;0.70;;
20713;SDS011;10518;50.742;4.226;2022-07-23T13:59:38;2.97;;;0.90;;
20713;SDS011;10518;50.742;4.226;2022-07-23T14:02:03;2.15;;;0.82;;
20713;SDS011;10518;50.742;4.226;2022-07-23T14:04:29;2.03;;;1.50;;
20713;SDS011;10518;50.742;4.226;2022-07-23T14:06:55;2.10;;;1.00;;
20713;SDS011;10518;50.742;4.226;2022-07-23T14:09:22;1.77;;;0.90;;
20713;SDS011;10518;50.742;4.226;2022-07-23T14:11:48;2.03;;;1.27;;
20713;SDS011;10518;50.742;4.226;2022-07-23T14:14:15;3.17;;;1.42;;
20713;SDS011;10518;50.742;4.226;2022-07-23T14:16:41;1.35;;;0.77;;
20713;SDS011;10518;50.742;4.226;2022-07-23T14:19:08;1.83;;;0.88;;
20713;SDS011;10518;50.742;4.226;2022-07-23T14:21:33;1.65;;;0.85;;
20713;SDS011;10518;50.742;4.226;2022-07-23T14:23:59;2.35;;;1.38;;
20713;SDS011;10518;50.742;4.226;2022-07-23T14:26:25;2.78;;;1.30;;
20713;SDS011;10518;50.742;4.226;2022-07-23T14:28:50;1.38;;;0.93;;
20713;SDS011;10518;50.742;4.226;2022-07-23T14:31:16;5.15;;;0.93;;
20713;SDS011;10518;50.742;4.226;2022-07-23T14:33:42;1.42;;;0.80;;
20713;SDS011;10518;50.742;4.226;2022-07-23T14:36:07;2.08;;;0.80;;
20713;SDS011;10518;50.742;4.226;2022-07-23T14:38:33;1.58;;;0.90;;
20713;SDS011;10518;50.742;4.226;2022-07-23T14:40:59;1.55;;;1.00;;
20713;SDS011;10518;50.742;4.226;2022-07-23T14:43:24;1.17;;;0.85;;
20713;SDS011;10518;50.742;4.226;2022-07-23T14:45:50;2.35;;;1.30;;
20713;SDS011;10518;50.742;4.226;2022-07-23T14:48:16;1.17;;;0.90;;
20713;SDS011;10518;50.742;4.226;2022-07-23T14:50:41;3.95;;;1.90;;
20713;SDS011;10518;50.742;4.226;2022-07-23T14:53:07;5.78;;;1.25;;
20713;SDS011;10518;50.742;4.226;2022-07-23T14:55:33;1.88;;;1.10;;
20713;SDS011;10518;50.742;4.226;2022-07-23T14:57:59;1.60;;;1.08;;
20713;SDS011;10518;50.742;4.226;2022-07-23T15:00:24;2.42;;;1.10;;
20713;SDS011;10518;50.742;4.226;2022-07-23T15:02:51;0.88;;;0.80;;
20713;SDS011;10518;50.742;4.226;2022-07-23T15:05:17;1.85;;;0.95;;
20713;SDS011;10518;50.742;4.226;2022-07-23T15:07:43;2.17;;;1.10;;
20713;SDS011;10518;50.742;4.226;2022-07-23T15:10:08;2.17;;;1.20;;
20713;SDS011;10518;50.742;4.226;2022-07-23T15:12:34;1.13;;;0.90;;
20713;SDS011;10518;50.742;4.226;2022-07-23T15:15:00;2.58;;;1.10;;
20713;SDS011;10518;50.742;4.226;2022-07-23T15:17:25;1.45;;;1.02;;
20713;SDS011;10518;50.742;4.226;2022-07-23T15:19:51;1.67;;;0.98;;
20713;SDS011;10518;50.742;4.226;2022-07-23T15:22:17;1.65;;;1.17;;
20713;SDS011;10518;50.742;4.226;2022-07-23T15:24:43;3.08;;;1.60;;
20713;SDS011;10518;50.742;4.226;2022-07-23T15:27:08;1.67;;;1.35;;
20713;SDS011;10518;50.742;4.226;2022-07-23T15:29:34;1.27;;;0.90;;